createdAt,value
2023-02-22T00:04:07.965Z,99.40
2023-02-22T00:09:11.346Z,99.60
2023-02-22T00:14:18.125Z,99.70
2023-02-22T00:19:21.543Z,99.60
2023-02-22T00:24:24.882Z,99.70
2023-02-22T00:29:29.645Z,99.80
2023-02-22T00:34:32.979Z,99.90
2023-02-22T00:39:36.488Z,99.90
2023-02-22T00:44:41.483Z,99.90
2023-02-22T00:49:45.108Z,99.90
2023-02-22T00:54:48.496Z,99.90
2023-02-22T00:59:53.167Z,99.90
2023-02-22T01:04:56.553Z,99.90
2023-02-22T01:10:00.556Z,99.90
2023-02-22T01:15:06.712Z,99.90
2023-02-22T01:20:12.745Z,99.90
2023-02-22T01:25:18.909Z,99.90
2023-02-22T01:30:25.749Z,99.90
2023-02-22T01:35:31.353Z,99.90
2023-02-22T01:40:35.323Z,99.90
2023-02-22T01:45:45.553Z,99.90
2023-02-22T01:50:55.134Z,99.90
2023-02-22T01:56:00.428Z,99.90
2023-02-22T02:01:05.373Z,99.90
2023-02-22T02:06:13.892Z,99.90
2023-02-22T02:11:20.230Z,99.90
2023-02-22T02:16:27.065Z,99.90
2023-02-22T02:22:12.793Z,99.90
2023-02-22T02:27:20.487Z,99.90
2023-02-22T02:32:32.761Z,99.90
2023-02-22T02:37:40.972Z,99.90
2023-02-22T02:42:52.431Z,99.90
2023-02-22T02:48:00.347Z,99.90
2023-02-22T02:53:09.270Z,99.90
2023-02-22T02:58:20.004Z,99.90
2023-02-22T03:03:49.136Z,99.90
2023-02-22T03:09:03.584Z,99.90
2023-02-22T03:14:17.793Z,99.90
2023-02-22T03:19:28.795Z,99.90
2023-02-22T03:24:35.653Z,99.90
2023-02-22T03:29:42.898Z,99.90
2023-02-22T03:34:53.754Z,99.90
2023-02-22T03:40:01.908Z,99.90
2023-02-22T03:45:10.155Z,99.90
2023-02-22T03:50:19.330Z,99.90
2023-02-22T03:55:23.864Z,99.90
2023-02-22T04:00:30.742Z,99.90
2023-02-22T04:05:35.739Z,99.90
2023-02-22T04:10:39.170Z,99.90
2023-02-22T04:15:42.946Z,99.90
2023-02-22T04:20:49.265Z,99.90
2023-02-22T04:26:01.802Z,99.90
2023-02-22T04:31:07.172Z,99.90
2023-02-22T04:36:13.588Z,99.90
2023-02-22T04:41:19.547Z,99.90
2023-02-22T04:46:23.607Z,99.90
2023-02-22T04:51:30.116Z,99.90
2023-02-22T04:56:36.839Z,99.90
2023-02-22T05:01:40.178Z,99.90
2023-02-22T05:06:44.840Z,99.90
2023-02-22T05:11:48.166Z,99.90
2023-02-22T05:16:51.439Z,99.90
2023-02-22T05:21:56.529Z,99.90
2023-02-22T05:26:59.808Z,99.90
2023-02-22T05:32:03.381Z,99.90
2023-02-22T05:37:08.270Z,99.90
2023-02-22T05:42:11.597Z,99.90
2023-02-22T05:47:14.942Z,99.90
2023-02-22T05:52:20.084Z,99.90
2023-02-22T05:57:23.351Z,99.90
2023-02-22T06:02:26.684Z,99.90
2023-02-22T06:07:31.455Z,99.90
2023-02-22T06:12:34.768Z,99.90
2023-02-22T06:17:39.649Z,99.90
2023-02-22T06:22:45.654Z,99.90
2023-02-22T06:27:49.306Z,99.90
2023-02-22T06:32:52.579Z,99.90
2023-02-22T06:37:57.331Z,99.90
2023-02-22T06:43:00.960Z,99.90
2023-02-22T06:48:04.587Z,99.90
2023-02-22T06:53:10.362Z,99.90
2023-02-22T06:58:13.954Z,99.90
2023-02-22T07:03:17.735Z,99.90
2023-02-22T07:08:22.515Z,99.90
2023-02-22T07:13:26.193Z,99.90
2023-02-22T07:18:30.949Z,99.90
2023-02-22T07:23:35.767Z,99.90
2023-02-22T07:28:38.993Z,99.90
2023-02-22T07:33:52.155Z,99.90
2023-02-22T07:38:56.722Z,99.90
2023-02-22T07:43:59.984Z,99.90
2023-02-22T07:49:03.449Z,99.90
2023-02-22T07:54:08.133Z,99.90
2023-02-22T07:59:11.521Z,99.90
2023-02-22T08:04:14.830Z,99.90
2023-02-22T08:09:19.425Z,99.90
2023-02-22T08:14:22.736Z,99.90
2023-02-22T08:19:25.990Z,99.90
2023-02-22T08:24:30.743Z,99.90
2023-02-22T08:29:34.448Z,99.90
2023-02-22T08:34:38.106Z,99.90
2023-02-22T08:39:42.829Z,99.90
2023-02-22T08:44:46.281Z,99.90
2023-02-22T08:49:49.538Z,99.90
2023-02-22T08:54:55.779Z,99.90
2023-02-22T08:59:59.036Z,99.90
2023-02-22T09:05:02.565Z,99.90
2023-02-22T09:10:08.041Z,99.90
2023-02-22T09:15:12.257Z,99.90
2023-02-22T09:20:18.376Z,99.90
2023-02-22T09:25:23.900Z,99.90
2023-02-22T09:30:28.308Z,99.90
2023-02-22T09:35:31.836Z,99.90
2023-02-22T09:40:44.998Z,99.90
2023-02-22T09:46:03.043Z,99.90
2023-02-22T09:51:16.925Z,99.90
2023-02-22T09:56:22.521Z,99.90
2023-02-22T10:01:28.075Z,99.90
2023-02-22T10:06:33.584Z,99.90
2023-02-22T10:11:50.836Z,99.90
2023-02-22T10:17:00.419Z,99.50
2023-02-22T10:22:32.844Z,99.20
2023-02-22T10:27:40.982Z,98.70
2023-02-22T10:32:46.500Z,98.60
2023-02-22T10:37:53.209Z,98.30
2023-02-22T10:42:58.828Z,98.00
2023-02-22T10:48:08.625Z,97.90
2023-02-22T10:53:13.257Z,97.30
2023-02-22T10:58:18.398Z,96.80
2023-02-22T11:03:23.494Z,96.50
2023-02-22T11:08:29.283Z,96.00
2023-02-22T11:13:38.887Z,95.70
2023-02-22T11:18:42.232Z,95.30
2023-02-22T11:23:45.595Z,95.00
2023-02-22T11:28:56.176Z,94.30
2023-02-22T11:34:01.572Z,94.20
2023-02-22T11:39:06.643Z,93.70
2023-02-22T11:44:24.834Z,93.20
2023-02-22T11:49:35.279Z,92.90
2023-02-22T11:54:58.757Z,92.70
2023-02-22T12:00:16.789Z,92.60
2023-02-22T12:05:37.196Z,92.40
2023-02-22T12:10:50.103Z,92.20
2023-02-22T12:16:04.164Z,91.80
2023-02-22T12:21:16.755Z,91.60
2023-02-22T12:26:25.756Z,91.30
2023-02-22T12:31:34.275Z,91.60
2023-02-22T12:36:42.974Z,91.20
2023-02-22T12:41:49.486Z,91.10
2023-02-22T12:46:56.770Z,91.00
2023-02-22T12:52:20.616Z,90.80
2023-02-22T12:57:35.229Z,90.30
2023-02-22T13:02:44.903Z,90.30
2023-02-22T13:07:59.149Z,90.40
2023-02-22T13:13:10.255Z,90.40
2023-02-22T13:18:21.251Z,90.60
2023-02-22T13:23:39.195Z,90.80
2023-02-22T13:28:47.635Z,91.00
2023-02-22T13:34:13.249Z,91.10
2023-02-22T13:39:46.414Z,91.20
2023-02-22T13:45:22.004Z,91.20
2023-02-22T13:50:51.501Z,91.10
2023-02-22T13:55:57.829Z,91.20
2023-02-22T14:01:01.624Z,91.20
2023-02-22T14:06:08.598Z,91.10
2023-02-22T14:11:45.345Z,91.10
2023-02-22T14:17:23.308Z,91.10
2023-02-22T14:22:30.854Z,91.20
2023-02-22T14:27:41.850Z,91.30
2023-02-22T14:32:45.298Z,91.40
2023-02-22T14:37:55.710Z,91.50
2023-02-22T14:43:05.177Z,91.60
2023-02-22T14:48:20.420Z,91.70
2023-02-22T14:53:39.557Z,91.70
2023-02-22T14:58:48.840Z,91.70
2023-02-22T15:04:07.337Z,91.70
2023-02-22T15:09:24.105Z,91.70
2023-02-22T15:14:28.553Z,91.70
2023-02-22T15:19:34.498Z,91.70
2023-02-22T15:24:40.689Z,91.90
2023-02-22T15:29:46.111Z,92.00
2023-02-22T15:34:49.494Z,92.10
2023-02-22T15:39:59.470Z,92.00
2023-02-22T15:45:03.062Z,92.10
2023-02-22T15:50:18.242Z,92.20
2023-02-22T15:55:26.835Z,92.40
2023-02-22T16:00:37.085Z,92.50
2023-02-22T16:05:44.570Z,92.70
2023-02-22T16:10:54.888Z,92.90
2023-02-22T16:16:01.954Z,93.10
2023-02-22T16:21:12.021Z,93.30
2023-02-22T16:26:25.749Z,93.50
2023-02-22T16:31:33.715Z,93.80
2023-02-22T16:36:43.049Z,94.10
2023-02-22T16:41:47.934Z,94.60
2023-02-22T16:46:51.233Z,94.70
2023-02-22T16:51:57.719Z,95.00
2023-02-22T16:57:04.054Z,95.30
2023-02-22T17:02:08.436Z,95.60
2023-02-22T17:07:12.142Z,95.90
2023-02-22T17:12:16.774Z,96.20
2023-02-22T17:17:20.138Z,96.50
2023-02-22T17:22:24.161Z,96.80
2023-02-22T17:27:28.788Z,97.20
2023-02-22T17:32:32.532Z,97.50
2023-02-22T17:37:35.842Z,97.80
2023-02-22T17:42:40.658Z,98.10
2023-02-22T17:47:44.449Z,98.30
2023-02-22T17:52:51.549Z,98.60
2023-02-22T17:57:58.969Z,98.80
2023-02-22T18:03:04.222Z,98.90
2023-02-22T18:08:07.661Z,99.20
2023-02-22T18:13:16.747Z,99.40
2023-02-22T18:18:22.199Z,99.50
2023-02-22T18:23:27.877Z,99.80
2023-02-22T18:28:32.935Z,99.90
2023-02-22T18:33:36.208Z,99.90
2023-02-22T18:38:42.774Z,99.90
2023-02-22T18:43:47.882Z,99.90
2023-02-22T18:48:54.259Z,99.90
2023-02-22T18:54:00.532Z,99.90
2023-02-22T18:59:06.573Z,99.90
2023-02-22T19:04:11.959Z,99.90
2023-02-22T19:09:15.364Z,99.90
2023-02-22T19:14:20.036Z,99.90
2023-02-22T19:19:26.369Z,99.90
2023-02-22T19:24:29.885Z,99.90
2023-02-22T19:29:38.344Z,99.90
2023-02-22T19:34:43.990Z,99.90
2023-02-22T19:39:47.319Z,99.90
2023-02-22T19:44:53.363Z,99.90
2023-02-22T19:49:59.664Z,99.90
2023-02-22T19:55:03.672Z,99.90
2023-02-22T20:00:12.261Z,99.90
2023-02-22T20:05:16.542Z,99.90
2023-02-22T20:10:20.254Z,99.90
2023-02-22T20:15:25.466Z,99.90
2023-02-22T20:20:30.690Z,99.90
2023-02-22T20:25:35.430Z,99.90
2023-02-22T20:30:41.608Z,99.90
2023-02-22T20:35:46.660Z,99.90
2023-02-22T20:40:49.893Z,99.90
2023-02-22T20:45:54.548Z,99.90
2023-02-22T20:50:57.927Z,99.90
2023-02-22T20:56:01.137Z,99.90
2023-02-22T21:01:08.057Z,99.90
2023-02-22T21:06:15.048Z,99.90
2023-02-22T21:11:19.340Z,99.90
2023-02-22T21:16:25.967Z,99.90
2023-02-22T21:21:31.325Z,99.90
2023-02-22T21:26:35.698Z,99.90
2023-02-22T21:31:40.837Z,99.90
2023-02-22T21:36:44.979Z,99.90
2023-02-22T21:41:50.239Z,99.90
2023-02-22T21:46:54.944Z,99.90
2023-02-22T21:51:58.343Z,99.90
2023-02-22T21:57:01.647Z,99.90
2023-02-22T22:02:06.445Z,99.90
2023-02-22T22:07:09.696Z,99.90
2023-02-22T22:12:14.220Z,99.90
2023-02-22T22:17:18.856Z,99.90
2023-02-22T22:22:23.139Z,99.90
2023-02-22T22:27:27.348Z,99.90
2023-02-22T22:32:32.302Z,99.90
2023-02-22T22:37:35.574Z,99.90
2023-02-22T22:42:39.409Z,99.90
2023-02-22T22:47:46.133Z,99.90
2023-02-22T22:52:49.685Z,99.90
2023-02-22T22:57:52.997Z,99.90
2023-02-22T23:02:57.820Z,99.90
2023-02-22T23:08:04.773Z,99.90
2023-02-22T23:13:10.423Z,99.90
2023-02-22T23:18:15.500Z,99.90
2023-02-22T23:23:18.764Z,99.90
2023-02-22T23:28:23.799Z,99.90
2023-02-22T23:33:31.431Z,99.90
2023-02-22T23:38:35.047Z,99.90
2023-02-22T23:43:40.480Z,99.90
2023-02-22T23:48:49.296Z,99.90
2023-02-22T23:53:55.699Z,99.90
2023-02-22T23:58:59.368Z,99.90
